Time;durP1;ratioP1;P1;durP2;ratioP2;P2;SDS_P1;SDS_P2;PMS_P1;PMS_P2;Temp;Humidity;BMP_temperature;BMP_pressure;BME280_temperature;BME280_humidity;BME280_pressure;Samples;Min_cycle;Max_cycle;Signal;HPM_P1;HPM_P2
2023/12/15 00:00:21;;;;;;;23.60;12.45;;;;;;;8.83;65.26;102212.72;5084976;27;100914;-74
2023/12/15 00:02:47;;;;;;;16.25;8.82;;;;;;;8.72;65.70;102210.16;5078148;27;98103;-74
2023/12/15 00:05:15;;;;;;;18.42;10.10;;;;;;;8.76;65.57;102225.06;5083565;27;96940;-74
2023/12/15 00:07:41;;;;;;;16.42;9.23;;;;;;;8.96;64.59;102224.97;5083005;27;96954;-75
2023/12/15 00:10:09;;;;;;;15.57;9.00;;;;;;;8.92;64.62;102230.25;5085861;27;102444;-75
2023/12/15 00:12:35;;;;;;;15.35;8.68;;;;;;;8.57;65.44;102231.28;5086355;27;98818;-76
2023/12/15 00:15:04;;;;;;;15.70;8.50;;;;;;;8.54;65.73;102230.41;5082833;27;97006;-75
2023/12/15 00:17:30;;;;;;;15.40;8.52;;;;;;;8.74;65.25;102231.19;5082940;27;96912;-75
2023/12/15 00:19:56;;;;;;;13.65;8.40;;;;;;;8.62;65.39;102231.25;5084634;27;99453;-76
2023/12/15 00:22:24;;;;;;;14.57;9.10;;;;;;;8.88;64.17;102234.66;5080399;27;98882;-75
2023/12/15 00:24:51;;;;;;;17.98;9.57;;;;;;;8.78;64.45;102225.94;5085814;27;96761;-77
2023/12/15 00:27:17;;;;;;;19.77;8.43;;;;;;;8.58;65.32;102232.16;5083949;27;96841;-74
2023/12/15 00:29:43;;;;;;;14.02;8.55;;;;;;;8.75;65.05;102238.22;5085037;27;101550;-76
2023/12/15 00:32:10;;;;;;;17.42;8.18;;;;;;;8.51;65.80;102231.31;5085141;27;99498;-74
2023/12/15 00:34:36;;;;;;;14.25;8.13;;;;;;;8.70;64.78;102242.66;5081186;27;97449;-75
2023/12/15 00:37:03;;;;;;;18.30;9.45;;;;;;;8.51;65.91;102249.75;5077395;27;96891;-75
2023/12/15 00:39:31;;;;;;;13.20;7.75;;;;;;;8.67;64.58;102250.56;5084626;27;97600;-75
2023/12/15 00:41:57;;;;;;;15.30;8.82;;;;;;;8.74;64.15;102255.81;5083534;27;99879;-75
2023/12/15 00:44:23;;;;;;;12.73;7.75;;;;;;;8.57;64.09;102260.28;5080832;27;96904;-75
2023/12/15 00:46:49;;;;;;;;;;;;;;;8.46;64.79;102269.09;5083191;27;98210;-75
2023/12/15 00:49:16;;;;;;;18.42;8.30;;;;;;;8.47;64.85;102263.78;5082466;27;98657;-74
2023/12/15 00:51:42;;;;;;;14.10;8.07;;;;;;;8.20;65.91;102259.47;5081372;27;98774;-74
2023/12/15 00:54:08;;;;;;;18.15;8.25;;;;;;;8.46;65.45;102269.09;5084058;27;96752;-74
2023/12/15 00:56:36;;;;;;;13.85;7.93;;;;;;;8.59;64.13;102269.06;5084391;27;98491;-75
2023/12/15 00:59:04;;;;;;;17.35;9.05;;;;;;;8.43;64.50;102271.72;5080409;27;98824;-75
2023/12/15 01:01:30;;;;;;;15.23;7.93;;;;;;;8.36;64.80;102274.38;5076803;27;99203;-74
2023/12/15 01:04:00;;;;;;;15.30;8.57;;;;;;;8.54;65.73;102280.47;5080770;27;96804;-75
2023/12/15 01:06:26;;;;;;;16.58;8.30;;;;;;;8.33;66.35;102282.28;5077011;27;96731;-75
2023/12/15 01:08:52;;;;;;;18.73;8.98;;;;;;;8.33;66.96;102294.59;5085979;27;102489;-76
2023/12/15 01:11:19;;;;;;;14.55;8.23;;;;;;;8.37;66.77;102286.66;5082300;27;98169;-77
2023/12/15 01:13:47;;;;;;;14.95;8.60;;;;;;;8.34;66.94;102296.31;5080883;27;97604;-76
2023/12/15 01:16:13;;;;;;;13.75;8.25;;;;;;;8.33;67.11;102292.84;5085074;27;97086;-76
2023/12/15 01:18:40;;;;;;;17.35;7.97;;;;;;;8.47;66.42;102292.78;5076188;27;97911;-75
2023/12/15 01:21:07;;;;;;;15.52;8.02;;;;;;;8.52;65.69;102300.69;5078781;27;99174;-76
2023/12/15 01:23:35;;;;;;;13.55;7.72;;;;;;;8.53;65.27;102295.44;5082067;27;97194;-75
2023/12/15 01:26:02;;;;;;;15.70;8.07;;;;;;;8.49;64.78;102293.66;5078872;27;97648;-76
2023/12/15 01:28:28;;;;;;;12.93;7.47;;;;;;;8.59;64.41;102290.13;5078901;27;98956;-76
2023/12/15 01:30:56;;;;;;;13.02;7.75;;;;;;;8.53;64.20;102302.44;5084525;27;98905;-76
2023/12/15 01:33:22;;;;;;;19.83;8.52;;;;;;;8.53;64.21;102298.06;5078924;27;97549;-75
2023/12/15 01:35:48;;;;;;;18.25;8.13;;;;;;;8.48;65.58;102297.16;5072498;27;96888;-76
2023/12/15 01:38:14;;;;;;;;;;;;;;;8.51;65.58;102298.94;5080244;27;98967;-75
2023/12/15 01:40:40;;;;;;;14.20;8.32;;;;;;;8.56;66.23;102303.31;5078068;27;97800;-75
2023/12/15 01:43:07;;;;;;;15.63;8.52;;;;;;;8.43;66.32;102314.75;5081234;27;96896;-76
2023/12/15 01:45:33;;;;;;;14.60;8.05;;;;;;;8.47;66.09;102321.75;5076577;27;97222;-74
2023/12/15 01:48:01;;;;;;;12.80;7.80;;;;;;;8.16;66.73;102320.00;5079316;27;98970;-75
2023/12/15 01:50:27;;;;;;;14.18;8.13;;;;;;;8.29;66.19;102330.53;5085482;27;99070;-75
2023/12/15 01:52:54;;;;;;;16.05;7.55;;;;;;;8.17;66.48;102330.56;5080261;27;97393;-75
2023/12/15 01:55:20;;;;;;;15.02;8.52;;;;;;;8.05;67.62;102343.72;5083773;27;100475;-74
2023/12/15 01:57:46;;;;;;;14.70;8.57;;;;;;;7.84;67.58;102347.22;5083709;27;101551;-75
2023/12/15 02:00:13;;;;;;;14.10;7.60;;;;;;;8.07;66.76;102349.00;5079429;27;99171;-75
2023/12/15 02:02:40;;;;;;;15.23;8.00;;;;;;;7.95;66.54;102355.09;5084835;27;96890;-74
2023/12/15 02:05:08;;;;;;;16.83;8.18;;;;;;;7.78;67.19;102347.22;5077819;27;97602;-75
2023/12/15 02:07:35;;;;;;;17.60;8.27;;;;;;;7.88;67.61;102348.97;5080600;27;97862;-75
2023/12/15 02:10:01;;;;;;;14.65;8.50;;;;;;;7.63;67.72;102351.56;5085067;27;99212;-75
2023/12/15 02:12:28;;;;;;;16.52;8.20;;;;;;;7.71;67.42;102347.19;5075750;27;97966;-75
2023/12/15 02:14:54;;;;;;;19.25;7.88;;;;;;;7.73;68.07;102353.34;5076578;27;97135;-75
2023/12/15 02:17:20;;;;;;;18.23;8.52;;;;;;;7.73;67.24;102348.09;5084567;27;99056;-75
2023/12/15 02:19:47;;;;;;;18.13;8.30;;;;;;;7.79;67.92;102342.81;5083368;27;99295;-76
2023/12/15 02:22:15;;;;;;;13.30;7.63;;;;;;;7.66;67.86;102348.94;5083441;27;98198;-76
2023/12/15 02:24:42;;;;;;;12.20;7.45;;;;;;;7.53;68.29;102355.94;5078839;27;96823;-75
2023/12/15 02:27:09;;;;;;;15.18;7.32;;;;;;;7.61;68.40;102362.09;5077468;27;98844;-75
2023/12/15 02:29:35;;;;;;;13.77;7.32;;;;;;;7.38;68.40;102356.75;5083681;27;98699;-75
2023/12/15 02:32:01;;;;;;;16.20;7.80;;;;;;;7.39;68.17;102357.63;5078488;27;96743;-75
2023/12/15 02:34:28;;;;;;;13.32;7.45;;;;;;;7.47;68.30;102362.06;5080169;27;96826;-77
2023/12/15 02:36:54;;;;;;;16.55;7.95;;;;;;;7.55;68.05;102360.31;5072799;27;98322;-77
2023/12/15 02:39:21;;;;;;;14.52;8.10;;;;;;;7.50;68.08;102356.78;5082559;27;99138;-76
2023/12/15 02:41:48;;;;;;;16.48;7.63;;;;;;;7.24;68.90;102368.09;5074500;27;96759;-76
2023/12/15 02:44:15;;;;;;;14.10;7.35;;;;;;;7.27;69.12;102374.25;5080420;27;97262;-77
2023/12/15 02:46:41;;;;;;;15.15;7.22;;;;;;;7.28;68.68;102373.41;5079178;27;98175;-77
2023/12/15 02:49:09;;;;;;;17.73;7.50;;;;;;;7.21;69.22;102374.25;5074977;27;97685;-77
2023/12/15 02:51:35;;;;;;;15.10;7.30;;;;;;;6.82;70.91;102385.44;5080587;27;96806;-76
2023/12/15 02:54:02;;;;;;;13.30;7.10;;;;;;;6.87;71.58;102393.34;5081352;27;97177;-78
2023/12/15 02:56:28;;;;;;;14.15;7.38;;;;;;;6.98;71.42;102391.63;5083135;27;98995;-76
2023/12/15 02:58:56;;;;;;;15.02;7.90;;;;;;;6.83;72.51;102400.31;5079057;27;99057;-77
2023/12/15 03:01:22;;;;;;;15.32;7.95;;;;;;;6.91;72.15;102403.88;5086122;27;97125;-77
2023/12/15 03:03:49;;;;;;;13.13;7.38;;;;;;;7.09;71.74;102393.44;5086137;27;96961;-77
2023/12/15 03:06:16;;;;;;;14.82;7.88;;;;;;;7.06;72.57;102395.19;5080995;27;100916;-77
2023/12/15 03:08:42;;;;;;;14.13;8.07;;;;;;;7.03;72.51;102395.16;5079030;27;98856;-75
2023/12/15 03:11:08;;;;;;;15.30;8.00;;;;;;;7.10;72.66;102402.22;5078158;27;96781;-75
2023/12/15 03:13:36;;;;;;;14.07;8.20;;;;;;;6.87;73.29;102406.47;5083034;27;97038;-75
2023/12/15 03:16:08;;;;;;;15.60;8.18;;;;;;;7.01;73.32;102407.44;5087601;27;97621;-76
2023/12/15 03:18:34;;;;;;;15.15;8.20;;;;;;;7.11;73.03;102414.47;5076593;27;99037;-75
2023/12/15 03:21:01;;;;;;;17.88;8.73;;;;;;;6.95;73.19;102413.53;5086660;27;97928;-75
2023/12/15 03:23:27;;;;;;;15.27;8.55;;;;;;;7.08;73.01;102412.75;5084392;27;100798;-76
2023/12/15 03:25:54;;;;;;;17.88;8.68;;;;;;;7.01;73.28;102425.84;5083177;27;97203;-76
2023/12/15 03:28:20;;;;;;;16.95;8.20;;;;;;;6.99;73.67;102431.06;5076503;27;98820;-76
2023/12/15 03:30:46;;;;;;;15.38;7.95;;;;;;;7.27;72.63;102426.84;5084798;27;96830;-75
2023/12/15 03:33:14;;;;;;;14.90;7.97;;;;;;;6.90;73.38;102435.38;5082755;27;97925;-75
2023/12/15 03:35:41;;;;;;;16.35;8.82;;;;;;;7.05;73.09;102431.09;5081046;27;99029;-76
2023/12/15 03:38:07;;;;;;;16.00;8.38;;;;;;;7.01;72.67;102426.72;5086415;27;99573;-75
2023/12/15 03:40:33;;;;;;;13.00;8.25;;;;;;;6.92;72.95;102425.78;5079880;27;97164;-76
2023/12/15 03:43:00;;;;;;;14.13;8.40;;;;;;;7.02;73.16;102433.69;5085958;27;96752;-76
2023/12/15 03:45:26;;;;;;;15.20;8.50;;;;;;;6.88;73.65;102437.13;5080035;27;101687;-76
2023/12/15 03:47:53;;;;;;;17.80;9.38;;;;;;;6.77;74.45;102443.19;5081445;27;99484;-75
2023/12/15 03:50:20;;;;;;;16.45;8.93;;;;;;;6.94;73.69;102437.19;5082548;27;96787;-74
2023/12/15 03:52:47;;;;;;;16.48;8.60;;;;;;;7.00;73.22;102426.69;5083583;27;96951;-75
2023/12/15 03:55:13;;;;;;;17.83;9.77;;;;;;;7.06;73.30;102438.13;5081987;27;99155;-74
2023/12/15 03:57:40;;;;;;;17.20;9.32;;;;;;;6.89;73.48;102441.53;5076386;27;102992;-75
2023/12/15 04:00:08;;;;;;;19.52;10.20;;;;;;;6.69;74.62;102444.91;5084235;27;96887;-75
2023/12/15 04:02:35;;;;;;;19.17;10.43;;;;;;;6.81;74.42;102438.84;5084222;27;97628;-75
2023/12/15 04:05:01;;;;;;;18.92;9.32;;;;;;;6.89;74.52;102444.16;5088077;27;102022;-74
2023/12/15 04:07:29;;;;;;;22.60;10.45;;;;;;;6.87;74.74;102440.63;5088789;27;99140;-74
2023/12/15 04:09:56;;;;;;;20.23;9.95;;;;;;;6.70;74.57;102449.25;5080951;27;97570;-74
2023/12/15 04:12:22;;;;;;;20.45;10.93;;;;;;;6.88;74.22;102456.41;5081034;27;96944;-75
2023/12/15 04:14:48;;;;;;;19.67;10.30;;;;;;;6.82;74.57;102458.13;5078118;27;98921;-76
2023/12/15 04:17:15;;;;;;;18.00;10.45;;;;;;;7.02;73.77;102446.00;5088469;27;99305;-75
2023/12/15 04:19:41;;;;;;;19.55;10.93;;;;;;;6.84;74.30;102446.72;5075154;27;96661;-75
2023/12/15 04:22:08;;;;;;;22.70;10.90;;;;;;;7.04;74.13;102457.38;5084322;27;97069;-74
2023/12/15 04:24:35;;;;;;;19.67;10.52;;;;;;;6.88;74.37;102453.78;5076626;27;99113;-75
2023/12/15 04:27:02;;;;;;;24.92;11.52;;;;;;;6.71;74.77;102458.91;5072444;27;99026;-76
2023/12/15 04:29:28;;;;;;;23.02;11.23;;;;;;;6.68;74.79;102458.03;5078127;27;97303;-74
2023/12/15 04:31:55;;;;;;;21.98;11.75;;;;;;;6.66;75.33;102465.00;5084129;27;97711;-75
2023/12/15 04:34:21;;;;;;;20.00;10.52;;;;;;;6.78;75.18;102478.22;5084372;27;98865;-73
2023/12/15 04:36:47;;;;;;;22.05;11.25;;;;;;;6.94;74.85;102472.22;5084288;27;97326;-74
2023/12/15 04:39:13;;;;;;;21.08;11.30;;;;;;;6.75;74.85;102472.97;5078170;27;96821;-75
2023/12/15 04:41:41;;;;;;;19.80;10.80;;;;;;;6.95;74.55;102475.72;5085708;27;96878;-74
2023/12/15 04:44:07;;;;;;;18.40;9.50;;;;;;;6.91;74.33;102473.94;5079018;27;98894;-76
2023/12/15 04:46:34;;;;;;;23.25;9.90;;;;;;;6.86;74.17;102478.28;5077739;27;99156;-76
2023/12/15 04:49:00;;;;;;;19.85;9.35;;;;;;;6.73;74.18;102472.94;5074823;27;96841;-76
2023/12/15 04:51:27;;;;;;;15.63;9.27;;;;;;;6.86;74.09;102466.03;5075352;27;97038;-77
2023/12/15 04:53:53;;;;;;;15.95;8.75;;;;;;;6.84;73.85;102474.75;5076125;27;97751;-76
2023/12/15 04:56:20;;;;;;;15.68;8.90;;;;;;;6.91;73.99;102463.41;5082425;27;99429;-75
2023/12/15 04:58:48;;;;;;;21.52;9.88;;;;;;;6.87;74.02;102477.41;5087717;27;97086;-75
2023/12/15 05:01:15;;;;;;;18.02;9.45;;;;;;;6.75;74.13;102476.47;5075182;27;97254;-74
2023/12/15 05:03:42;;;;;;;22.98;8.98;;;;;;;6.90;74.18;102486.19;5082722;27;97761;-74
2023/12/15 05:06:16;;;;;;;13.88;8.15;;;;;;;6.91;73.92;102490.59;5089016;27;98395;-74
2023/12/15 05:08:43;;;;;;;18.08;8.35;;;;;;;6.99;73.71;102477.50;5079479;27;96903;-74
2023/12/15 05:11:09;;;;;;;14.15;8.13;;;;;;;6.98;73.26;102491.50;5085442;27;97921;-74
2023/12/15 05:13:36;;;;;;;15.07;8.15;;;;;;;6.56;74.31;102490.31;5074345;27;97824;-74
2023/12/15 05:16:04;;;;;;;12.10;7.28;;;;;;;6.52;74.89;102491.16;5082444;27;98876;-75
2023/12/15 05:18:31;;;;;;;14.85;7.95;;;;;;;6.48;75.02;102488.50;5087710;27;96828;-75
2023/12/15 05:20:57;;;;;;;12.73;7.35;;;;;;;6.52;74.92;102491.16;5085143;27;97179;-75
2023/12/15 05:23:24;;;;;;;17.25;8.82;;;;;;;6.56;74.69;102492.06;5079080;27;98218;-75
2023/12/15 05:25:50;;;;;;;14.15;8.20;;;;;;;6.39;75.07;102507.66;5074677;27;98778;-75
2023/12/15 05:28:17;;;;;;;14.30;7.88;;;;;;;6.38;75.55;102512.03;5082106;27;96888;-75
2023/12/15 05:30:43;;;;;;;17.17;8.48;;;;;;;6.29;75.60;102521.56;5083477;27;96827;-76
2023/12/15 05:33:11;;;;;;;16.75;8.63;;;;;;;6.25;75.76;102525.00;5084547;27;98998;-75
2023/12/15 05:35:37;;;;;;;17.38;8.80;;;;;;;6.24;76.31;102520.63;5075481;27;99350;-75
2023/12/15 05:38:04;;;;;;;15.13;8.90;;;;;;;6.11;76.78;102518.72;5081560;27;96668;-74
2023/12/15 05:40:31;;;;;;;18.55;9.35;;;;;;;6.29;75.99;102522.47;5076770;27;97017;-75
2023/12/15 05:42:57;;;;;;;15.95;9.23;;;;;;;6.19;76.70;102517.06;5081333;27;98984;-75
2023/12/15 05:45:23;;;;;;;16.17;8.88;;;;;;;6.03;76.85;102523.03;5083019;27;101407;-75
2023/12/15 05:47:50;;;;;;;15.70;9.20;;;;;;;6.03;77.43;102515.16;5080615;27;96787;-73
2023/12/15 05:50:17;;;;;;;17.65;9.57;;;;;;;5.86;78.27;102523.69;5082314;27;97161;-74
2023/12/15 05:52:44;;;;;;;18.95;9.77;;;;;;;6.24;77.47;102525.88;5086419;27;99354;-75
2023/12/15 05:55:10;;;;;;;16.35;9.23;;;;;;;6.23;77.20;102530.28;5075327;27;99592;-75
2023/12/15 05:57:37;;;;;;;18.88;10.68;;;;;;;6.22;76.88;102522.38;5085261;27;97087;-75
2023/12/15 06:00:04;;;;;;;18.63;10.10;;;;;;;6.30;76.82;102525.97;5072783;27;96805;-74
2023/12/15 06:02:30;;;;;;;17.95;9.60;;;;;;;6.36;77.31;102518.16;5083218;27;99502;-75
2023/12/15 06:04:58;;;;;;;18.13;10.13;;;;;;;6.51;76.24;102523.53;5076839;27;98784;-74
2023/12/15 06:07:26;;;;;;;20.35;10.57;;;;;;;6.58;76.48;102535.84;5081198;27;96777;-75
2023/12/15 06:09:53;;;;;;;20.38;10.80;;;;;;;6.45;76.70;102533.97;5079641;27;96748;-76
2023/12/15 06:12:19;;;;;;;22.50;11.32;;;;;;;6.88;75.73;102544.88;5084837;27;98824;-75
2023/12/15 06:14:45;;;;;;;22.38;11.55;;;;;;;6.69;76.02;102554.34;5085987;27;98183;-75
2023/12/15 06:17:12;;;;;;;20.38;10.93;;;;;;;6.70;75.47;102549.09;5077585;27;96806;-75
2023/12/15 06:19:39;;;;;;;21.60;10.88;;;;;;;6.75;75.83;102554.41;5079478;27;97583;-75
2023/12/15 06:22:06;;;;;;;23.42;11.93;;;;;;;6.88;75.60;102573.78;5080535;27;98159;-75
2023/12/15 06:24:33;;;;;;;21.48;11.13;;;;;;;6.63;76.13;102584.06;5077153;27;99080;-75
2023/12/15 06:27:00;;;;;;;24.30;12.05;;;;;;;6.91;75.85;102579.06;5084023;27;96767;-75
2023/12/15 06:29:26;;;;;;;20.05;11.32;;;;;;;6.85;75.99;102573.75;5077110;27;96797;-75
2023/12/15 06:31:52;;;;;;;20.55;11.80;;;;;;;7.00;75.29;102569.50;5088773;27;97698;-75
2023/12/15 06:34:19;;;;;;;22.60;13.20;;;;;;;7.15;74.75;102572.25;5079855;27;98561;-75
2023/12/15 06:36:46;;;;;;;22.38;11.23;;;;;;;7.03;74.69;102582.66;5087180;27;96803;-75
2023/12/15 06:39:13;;;;;;;23.73;12.88;;;;;;;7.28;73.78;102581.13;5079664;27;96902;-75
2023/12/15 06:41:40;;;;;;;23.85;12.43;;;;;;;7.09;74.57;102571.31;5082651;27;98880;-75
2023/12/15 06:44:07;;;;;;;23.55;12.57;;;;;;;7.10;74.72;102586.22;5088807;27;98698;-75
2023/12/15 06:46:36;;;;;;;23.27;12.88;;;;;;;7.11;74.82;102598.50;5083511;27;98837;-77
2023/12/15 06:49:03;;;;;;;25.15;13.30;;;;;;;7.05;75.32;102604.59;5084711;27;98569;-75
2023/12/15 06:51:29;;;;;;;29.45;13.35;;;;;;;7.34;74.40;102612.72;5082950;27;98194;-76
2023/12/15 06:53:55;;;;;;;22.92;12.90;;;;;;;7.20;74.58;102611.72;5086340;27;99243;-75
2023/12/15 06:56:22;;;;;;;23.27;12.75;;;;;;;7.39;74.12;102605.75;5079506;27;97846;-75
2023/12/15 06:58:50;;;;;;;31.42;16.13;;;;;;;7.37;74.18;102604.84;5079940;27;96896;-75
2023/12/15 07:01:16;;;;;;;37.08;16.80;;;;;;;7.31;74.34;102615.31;5082010;27;98783;-75
2023/12/15 07:03:42;;;;;;;29.23;14.38;;;;;;;7.23;74.56;102624.88;5082106;27;99254;-76
2023/12/15 07:06:09;;;;;;;29.63;14.98;;;;;;;7.40;74.30;102622.41;5084938;27;96696;-75
2023/12/15 07:08:35;;;;;;;34.75;16.00;;;;;;;7.28;74.66;102623.19;5078435;27;97252;-76
2023/12/15 07:11:02;;;;;;;25.55;13.85;;;;;;;7.41;74.64;102629.44;5071152;27;99397;-75
2023/12/15 07:13:28;;;;;;;36.00;15.70;;;;;;;7.45;74.19;102632.09;5084172;27;98898;-75
2023/12/15 07:15:56;;;;;;;30.77;15.35;;;;;;;7.32;75.09;102629.34;5081395;27;96862;-75
2023/12/15 07:18:22;;;;;;;31.98;15.60;;;;;;;7.16;76.05;102638.84;5080387;27;99182;-76
2023/12/15 07:20:49;;;;;;;34.00;16.15;;;;;;;7.00;76.65;102632.59;5079794;27;98846;-76
2023/12/15 07:23:15;;;;;;;29.98;15.38;;;;;;;7.17;76.83;102635.34;5090041;27;99545;-76
2023/12/15 07:25:42;;;;;;;32.53;16.42;;;;;;;7.20;75.83;102632.78;5084686;27;98112;-76
2023/12/15 07:28:08;;;;;;;31.63;16.30;;;;;;;7.00;76.96;102637.84;5086110;27;96921;-77
2023/12/15 07:30:34;;;;;;;34.83;16.25;;;;;;;7.33;75.89;102637.25;5085138;27;98948;-78
2023/12/15 07:33:02;;;;;;;33.70;16.23;;;;;;;7.33;75.60;102633.75;5083759;27;99133;-78
2023/12/15 07:35:30;;;;;;;36.47;16.08;;;;;;;7.46;74.91;102639.09;5085418;27;97060;-77
2023/12/15 07:37:57;;;;;;;32.08;15.57;;;;;;;7.44;75.11;102643.47;5089072;27;97179;-78
2023/12/15 07:40:23;;;;;;;32.83;16.50;;;;;;;6.91;76.68;102642.13;5080548;27;99127;-77
2023/12/15 07:42:50;;;;;;;36.38;17.60;;;;;;;6.89;77.94;102641.25;5088914;27;98847;-77
2023/12/15 07:45:16;;;;;;;33.55;15.82;;;;;;;7.34;76.36;102643.41;5087491;27;96759;-77
2023/12/15 07:47:43;;;;;;;35.20;15.25;;;;;;;7.39;75.74;102634.66;5082076;27;96820;-77
2023/12/15 07:50:11;;;;;;;31.10;15.65;;;;;;;7.55;75.54;102635.66;5086535;27;98115;-77
2023/12/15 07:52:37;;;;;;;33.72;16.42;;;;;;;7.70;74.51;102646.28;5081996;27;98896;-74
2023/12/15 07:55:04;;;;;;;32.25;16.08;;;;;;;7.71;74.19;102647.16;5083284;27;98675;-72
2023/12/15 07:57:33;;;;;;;32.13;16.80;;;;;;;7.86;73.79;102650.78;5079955;27;96869;-72
2023/12/15 07:59:59;;;;;;;34.85;17.27;;;;;;;7.89;73.42;102660.44;5079648;27;97570;-74
2023/12/15 08:02:26;;;;;;;36.63;16.55;;;;;;;7.96;73.29;102675.38;5083916;27;101169;-74
2023/12/15 08:04:52;;;;;;;34.25;16.73;;;;;;;7.96;73.24;102678.91;5078556;27;96848;-73
2023/12/15 08:07:20;;;;;;;38.08;16.65;;;;;;;8.05;73.18;102664.91;5079524;27;98529;-74
2023/12/15 08:09:46;;;;;;;35.10;16.33;;;;;;;7.85;73.01;102669.19;5080683;27;100442;-74
2023/12/15 08:12:13;;;;;;;37.40;17.60;;;;;;;8.13;72.87;102660.59;5078739;27;98048;-76
2023/12/15 08:14:39;;;;;;;42.45;17.55;;;;;;;7.88;73.56;102661.28;5081094;27;98141;-74
2023/12/15 08:17:05;;;;;;;42.22;18.90;;;;;;;8.03;73.33;102653.50;5079728;27;97026;-74
2023/12/15 08:19:32;;;;;;;39.42;17.92;;;;;;;8.09;72.32;102656.16;5077545;27;98796;-73
2023/12/15 08:21:59;;;;;;;35.75;17.73;;;;;;;8.00;73.48;102656.13;5086014;27;98853;-74
2023/12/15 08:24:27;;;;;;;38.80;17.90;;;;;;;8.08;73.23;102664.03;5077300;27;97311;-74
2023/12/15 08:26:54;;;;;;;39.53;18.45;;;;;;;8.28;72.52;102675.53;5085317;27;97944;-75
2023/12/15 08:29:21;;;;;;;41.08;18.58;;;;;;;8.32;72.08;102659.81;5079067;27;98879;-74
2023/12/15 08:31:48;;;;;;;42.78;19.55;;;;;;;8.25;72.01;102644.84;5081851;27;100559;-75
2023/12/15 08:34:15;;;;;;;39.13;18.73;;;;;;;8.23;72.18;102656.22;5085004;27;97214;-74
2023/12/15 08:36:41;;;;;;;38.40;19.00;;;;;;;8.37;71.54;102659.81;5080925;27;96846;-75
2023/12/15 08:39:08;;;;;;;37.08;17.92;;;;;;;8.12;72.20;102653.56;5081834;27;98332;-74
2023/12/15 08:41:35;;;;;;;37.92;18.98;;;;;;;8.29;71.97;102661.50;5089306;27;99181;-74
2023/12/15 08:44:02;;;;;;;43.67;20.08;;;;;;;8.15;72.33;102664.06;5076932;27;98790;-74
2023/12/15 08:46:28;;;;;;;41.20;18.52;;;;;;;8.09;72.04;102658.78;5079707;27;98114;-75
2023/12/15 08:48:55;;;;;;;38.67;18.77;;;;;;;7.98;72.76;102666.63;5078011;27;99260;-74
2023/12/15 08:51:21;;;;;;;40.00;19.23;;;;;;;8.25;71.87;102671.16;5079679;27;98868;-74
2023/12/15 08:53:47;;;;;;;40.63;19.13;;;;;;;8.51;71.72;102675.69;5080951;27;96777;-74
2023/12/15 08:56:14;;;;;;;42.78;18.63;;;;;;;8.52;70.69;102682.72;5078475;27;97689;-74
2023/12/15 08:58:43;;;;;;;45.00;19.75;;;;;;;8.43;71.26;102691.47;5072295;27;99458;-75
2023/12/15 09:01:09;;;;;;;38.30;17.98;;;;;;;8.57;71.10;102687.13;5073813;27;98955;-75
2023/12/15 09:03:36;;;;;;;42.22;19.40;;;;;;;8.52;70.93;102691.50;5070799;27;99039;-74
2023/12/15 09:06:03;;;;;;;39.67;18.73;;;;;;;8.47;69.58;102695.84;5077650;27;98643;-76
2023/12/15 09:08:29;;;;;;;46.13;19.40;;;;;;;8.63;70.48;102699.44;5080087;27;102161;-75
2023/12/15 09:10:56;;;;;;;42.03;18.92;;;;;;;8.40;70.38;102708.13;5083288;27;97609;-75
2023/12/15 09:13:22;;;;;;;37.83;18.05;;;;;;;8.69;70.30;102718.78;5079727;27;98763;-75
2023/12/15 09:15:50;;;;;;;39.15;19.58;;;;;;;8.61;70.35;102711.72;5079368;27;96780;-75
2023/12/15 09:18:16;;;;;;;62.15;18.45;;;;;;;8.74;69.98;102713.53;5079271;27;101782;-75
2023/12/15 09:20:43;;;;;;;36.30;18.63;;;;;;;8.79;69.46;102728.47;5073624;27;99444;-76
2023/12/15 09:23:10;;;;;;;40.33;18.15;;;;;;;8.74;69.78;102729.34;5084431;27;97595;-75
2023/12/15 09:25:37;;;;;;;39.08;18.95;;;;;;;8.86;69.77;102737.28;5080025;27;98742;-75
2023/12/15 09:28:05;;;;;;;43.42;18.92;;;;;;;8.73;70.19;102733.72;5075030;27;101765;-75
2023/12/15 09:30:31;;;;;;;45.40;19.83;;;;;;;8.76;69.95;102744.31;5081199;27;98959;-75
2023/12/15 09:32:59;;;;;;;41.67;19.27;;;;;;;8.87;68.68;102739.06;5088236;27;96828;-76
2023/12/15 09:35:25;;;;;;;41.10;19.20;;;;;;;8.59;69.86;102750.38;5082803;27;97533;-76
2023/12/15 09:37:52;;;;;;;39.83;19.83;;;;;;;8.53;70.72;102745.09;5083333;27;98762;-76
2023/12/15 09:40:21;;;;;;;39.78;19.15;;;;;;;8.83;69.28;102747.84;5077596;27;97952;-75
2023/12/15 09:42:48;;;;;;;40.45;18.77;;;;;;;8.98;69.55;102755.81;5083232;27;96794;-75
2023/12/15 09:45:15;;;;;;;38.85;19.00;;;;;;;9.03;68.25;102758.44;5079043;27;96860;-75
2023/12/15 09:47:46;;;;;;;39.90;19.58;;;;;;;9.27;67.94;102747.94;5085640;27;98881;-76
2023/12/15 09:50:16;;;;;;;37.90;19.48;;;;;;;9.19;67.88;102753.19;5082075;27;98895;-75
2023/12/15 09:52:43;;;;;;;40.30;19.75;;;;;;;9.23;67.56;102740.03;5091331;27;97123;-75
2023/12/15 09:55:10;;;;;;;38.72;18.80;;;;;;;9.21;66.92;102747.94;5087754;27;97268;-74
2023/12/15 09:57:38;;;;;;;35.80;19.05;;;;;;;9.15;68.36;102751.44;5092021;27;98501;-74
2023/12/15 10:00:06;;;;;;;41.45;18.60;;;;;;;8.97;68.41;102756.69;5084593;27;98772;-74
2023/12/15 10:02:34;;;;;;;34.80;18.33;;;;;;;8.86;69.11;102754.88;5086697;27;96897;-74
2023/12/15 10:05:00;;;;;;;37.85;17.83;;;;;;;9.07;68.46;102757.56;5091016;27;97993;-74
2023/12/15 10:07:28;;;;;;;40.20;17.85;;;;;;;9.17;67.96;102754.97;5087367;27;97981;-74
2023/12/15 10:09:56;;;;;;;37.45;19.17;;;;;;;9.14;67.77;102756.72;5084964;27;99339;-74
2023/12/15 10:12:22;;;;;;;40.25;18.63;;;;;;;8.95;68.60;102755.78;5087264;27;98543;-73
2023/12/15 10:14:49;;;;;;;34.47;17.30;;;;;;;8.90;68.81;102756.66;5085395;27;98702;-73
2023/12/15 10:17:16;;;;;;;34.47;17.70;;;;;;;8.86;69.03;102766.28;5084238;27;99348;-73
2023/12/15 10:19:42;;;;;;;37.08;18.13;;;;;;;8.60;69.50;102770.59;5088207;27;98445;-74
2023/12/15 10:22:09;;;;;;;39.60;18.15;;;;;;;8.50;70.84;102771.41;5083903;27;97056;-74
2023/12/15 10:24:37;;;;;;;34.55;17.92;;;;;;;8.26;71.80;102773.03;5083102;27;97750;-74
2023/12/15 10:27:04;;;;;;;39.25;18.83;;;;;;;8.58;70.61;102774.97;5085547;27;98727;-75
2023/12/15 10:29:30;;;;;;;37.92;18.48;;;;;;;8.52;70.83;102769.69;5090023;27;98778;-74
2023/12/15 10:31:57;;;;;;;40.65;18.58;;;;;;;8.59;70.97;102767.09;5082236;27;100174;-74
2023/12/15 10:34:25;;;;;;;35.03;19.13;;;;;;;8.80;69.95;102763.63;5091808;27;96783;-75
2023/12/15 10:36:52;;;;;;;37.03;18.05;;;;;;;8.56;70.50;102777.59;5087425;27;99004;-75
2023/12/15 10:39:18;;;;;;;32.58;17.83;;;;;;;8.60;70.64;102778.50;5085740;27;98800;-75
2023/12/15 10:41:47;;;;;;;35.55;18.42;;;;;;;8.55;70.65;102775.84;5087489;27;99669;-74
2023/12/15 10:44:15;;;;;;;35.22;17.65;;;;;;;8.91;69.80;102769.84;5083821;27;96828;-74
2023/12/15 10:46:42;;;;;;;38.55;17.15;;;;;;;8.65;69.81;102771.50;5086467;27;98885;-74
2023/12/15 10:49:10;;;;;;;36.78;17.95;;;;;;;8.86;69.83;102760.16;5083729;27;98991;-73
2023/12/15 10:51:38;;;;;;;35.40;18.95;;;;;;;8.96;69.69;102767.22;5085129;27;98656;-74
2023/12/15 10:54:06;;;;;;;37.58;18.90;;;;;;;8.71;69.48;102767.13;5079501;27;97406;-73
2023/12/15 10:56:32;;;;;;;30.38;17.30;;;;;;;8.82;69.66;102756.63;5079977;27;99103;-73
2023/12/15 10:59:00;;;;;;;32.75;17.70;;;;;;;8.89;69.23;102758.41;5079429;27;99283;-75
2023/12/15 11:01:28;;;;;;;37.00;17.80;;;;;;;9.01;68.93;102755.78;5081677;27;97956;-74
2023/12/15 11:03:54;;;;;;;33.47;18.15;;;;;;;9.18;68.54;102748.81;5086405;27;97111;-74
2023/12/15 11:06:28;;;;;;;32.05;17.88;;;;;;;9.03;69.10;102751.41;5072863;27;99569;-73
2023/12/15 11:09:00;;;;;;;33.33;17.90;;;;;;;9.42;67.53;102750.59;5081031;27;98831;-73
2023/12/15 11:11:28;;;;;;;35.30;17.88;;;;;;;9.21;68.47;102763.75;5079855;27;97376;-74
2023/12/15 11:14:01;;;;;;;32.60;17.77;;;;;;;9.11;69.19;102764.63;5081576;27;97346;-74
2023/12/15 11:16:30;;;;;;;33.28;17.38;;;;;;;9.16;70.04;102766.41;5083346;27;99389;-73
2023/12/15 11:18:59;;;;;;;36.33;18.85;;;;;;;9.03;70.32;102772.50;5077389;27;100797;-74